x

South Santa Rosa Is. Ca (46069) Wave Buoy

10:50 - Thu 23rd Oct 2014 All times are PDT. -7 hours from GMT.

  • Sig Wave height 7.5ft
  • Peak Period 14s
  • Average Period 7s
  • Wind
    18mph, 22mph gusts
  • Sea Temp 67°f
  • Aire Temp 65°f
  • Sea Pressure 1013.5mb
  • South Santa Rosa Is. Ca
  • South Santa Rosa Is. Ca

More Historic Weather Station data

Upgrade to MSW Pro to gain access to the past 30 days of data for over 8000 Wavebouys and Weather Stations around the globe.

Join Pro

Comparision Forecast

View Surf forecast
   
jue 10/23 10:50 7.5ft 14s 7s 18 22 mph 1013.5mb 67f 65f
9:50 8ft 13s 8s 18 22 mph 1013.1mb 67f 66f
8:50 7.5ft 12s 7s 16 20 mph 1012.7mb 67f 66f
7:50 7.5ft 13s 7s 18 20 mph 1012.4mb 68f 66f
6:50 8ft 11s 7s 18 22 mph 1012.5mb 68f 66f
5:50 8ft 13s 7s 18 22 mph 1012.4mb 68f 66f
4:50 8ft 11s 7s 18 20 mph 1012.8mb 68f 66f
3:50 8ft 11s 7s 18 22 mph 1013.1mb 68f 66f
2:50 8ft 12s 7s 18 22 mph 1013.3mb 68f 66f
1:50 8ft 14s 7s 20 22 mph 1013.9mb 68f 66f
12:50 9ft 14s 8s 18 22 mph 1014.7mb 68f 65f
11:50 9ft 14s 8s 20 22 mph 1015.1mb 68f 65f
9:50 8.5ft 12s 8s 18 20 mph 1015.4mb 67f 65f
8:50 8ft 11s 7s 18 20 mph 1014.9mb 67f 65f
7:50 8ft 11s 7s 18 22 mph 1014.1mb 67f 65f
6:50 8ft 13s 8s 18 20 mph 1013.6mb 67f 65f
5:50 8ft 12s 8s 16 18 mph 1013.1mb 67f 65f
4:50 7ft 11s 7s 16 18 mph 1012.7mb 67f 65f
3:50 7.5ft 13s 7s 16 18 mph 1012.6mb 68f 65f
2:50 8ft 12s 8s 18 22 mph 1013.2mb 68f 65f
1:50 8.5ft 13s 7s 20 22 mph 1013.1mb 67f 65f
12:50 8.5ft 13s 7s 20 25 mph 1013.4mb 67f 65f
mié 10/22 11:50 8.5ft 12s 7s 20 22 mph 1013.3mb 66f 65f
10:50 9ft 12s 7s 18 20 mph 1013.5mb 66f 66f
9:50 8.5ft 12s 7s 18 22 mph 1013.6mb 66f 66f
8:50 9ft 13s 7s 18 22 mph 1013.2mb 67f 66f
7:50 9ft 13s 8s 18 20 mph 1013.1mb 67f 66f
6:50 8.5ft 12s 7s 18 22 mph 1012.7mb 67f 65f
5:50 8.5ft 12s 7s 20 22 mph 1012.3mb 67f 66f
4:50 9ft 13s 8s 18 22 mph 1012.4mb 67f 66f
3:50 9ft 12s 7s 20 22 mph 1012.6mb 68f 66f
2:50 9ft 13s 7s 20 22 mph 1012.7mb 68f 66f
1:50 9ft 14s 8s 16 20 mph 1013.3mb 68f 66f
12:50 10ft 14s 8s 16 18 mph 1013.6mb 67f 66f
11:50 10ft 14s 8s 16 20 mph 1013.8mb 66f 65f
10:50 11ft 13s 8s 13 18 mph 1013.9mb 66f 66f
9:50 10.5ft 11s 8s 18 22 mph 1013.4mb 67f 65f
8:50 10.5ft 12s 8s 16 20 mph 1013.2mb 67f 66f
7:50 12ft 14s 8s 20 25 mph 1012.5mb 67f 66f
6:50 10.5ft 13s 8s 22 27 mph 1011.7mb 67f 66f
5:50 13ft 14s 9s 25 29 mph 1011.3mb 67f 66f
4:50 13ft 14s 8s 25 29 mph 1010.8mb 67f 66f
3:50 13.5ft 14s 9s 22 27 mph 1010.8mb 68f 67f
2:50 13ft 15s 8s 25 34 mph 1010.6mb 68f 67f
1:50 10ft 15s 7s 25 31 mph 1010.9mb 68f 66f
12:50 15ft 14s 8s 27 34 mph 1010.6mb 68f 66f
mar 10/21 11:50 14ft 15s 8s 29 36 mph 1010.8mb 67f 65f
10:50 12.5ft 15s 7s 29 34 mph 1011.5mb 67f 65f
9:50 14.5ft 15s 8s 27 36 mph 1011.1mb 67f 65f
8:50 14.5ft 15s 8s 31 38 mph 1010.5mb 67f 65f
7:50 13ft 15s 7s 31 36 mph 1010.4mb 67f 65f
6:50 13.5ft 15s 8s 29 34 mph 1010.6mb 68f 66f
5:50 13ft 16s 8s 27 34 mph 1010.3mb 68f 66f
4:50 14ft 15s 8s 27 34 mph 1010.4mb 68f 66f
3:50 13ft 15s 8s 27 34 mph 1010.8mb 68f 66f
2:50 14ft 16s 9s 27 36 mph 1011.1mb 68f 66f
1:50 13ft 14s 8s 25 29 mph 1011.7mb 68f 66f
12:50 13ft 16s 8s 27 34 mph 1012.1mb 68f 66f
11:50 14ft 16s 9s 27 34 mph 1012.6mb 68f 66f
10:50 12.5ft 15s 8s 25 29 mph 1013.4mb 67f 65f
9:50 14ft 16s 9s 25 31 mph 1013.4mb 67f 66f
8:50 13ft 16s 8s 27 31 mph 1013mb 67f 66f
7:50 15ft 15s 9s 27 34 mph 1012.3mb 67f 65f
6:50 13.5ft 16s 8s 27 34 mph 1011.9mb 67f 66f
5:50 14.5ft 15s 9s 29 36 mph 1011.2mb 67f 66f
4:50 14ft 16s 9s 29 36 mph 1011.3mb 67f 66f
3:50 13.5ft 16s 8s 31 40 mph 1011.2mb 68f 66f
2:50 13ft 16s 8s 31 38 mph 1011.6mb 68f 66f
1:50 12ft 15s 8s 31 38 mph 1011.8mb 68f 66f
12:50 11.5ft 16s 7s 31 38 mph 1011.9mb 68f 67f
lun 10/20 11:50 10ft 16s 7s 29 38 mph 1012.3mb 68f 66f
10:50 9.5ft 17s 7s 31 38 mph 1012.6mb 68f 66f
9:50 9ft 16s 7s 27 31 mph 1012.8mb 68f 67f
8:50 8ft 17s 7s 22 27 mph 1012.4mb 68f 67f
7:50 7ft 16s 6s 27 31 mph 1012.2mb 68f 66f
6:50 6.5ft 17s 6s 27 31 mph 1012.2mb 68f 67f
5:50 7ft 17s 6s 25 29 mph 1011.8mb 68f 67f
4:50 6ft 11s 6s 22 27 mph 1012mb 68f 66f
3:50 6ft 11s 6s 22 27 mph 1012.3mb 68f 66f
2:50 5.5ft 17s 6s 20 22 mph 1012.6mb 68f 67f
1:50 5.5ft 17s 7s 20 25 mph 1012.6mb 68f 66f
11:50 5.5ft 17s 6s 20 25 mph 1013.7mb 69f 66f
9:50 5.5ft 17s 7s 18 22 mph 1014.1mb 68f 65f
8:50 6ft 19s 7s 18 22 mph 1013.5mb 68f 65f
7:50 5.5ft 19s 7s 16 20 mph 1012.5mb 68f 65f